bug.cn alexa rank chart, bug.cn alexa rank daily changes

bug.cn alexa rank chart, bug.cn alexa rank daily changes

bug.cn
Actual rank:
236 598

RANK HISTORY

Date Rank Diff
2017/02/27 236 598 -15 633
2017/02/26 252 231 -1 175
2017/02/25 253 406 -13 439
2017/02/24 266 845 -595
2017/02/23 267 440 -14 346
2017/02/22 281 786 -8 457
2017/02/21 290 243 -1 348
2017/02/20 291 591 -20 886
2017/02/19 312 477 -12 059
2017/02/18 324 536 -849
2017/02/17 325 385 -15 830
2017/02/16 341 215 -23 915
2017/02/15 365 130 -164
2017/02/14 365 294 +21 944
2017/02/13 343 350 -1 740
2017/02/12 345 090 +1 310
2017/02/11 343 780 +17 203
2017/02/10 326 577 -334
2017/02/09 326 911 +30 950
2017/02/08 295 961 +15 981
2017/02/07 279 980 -2 055
2017/02/06 282 035 -4 837
2017/02/05 286 872 -1 667
2017/02/04 288 539 -15 088
2017/02/03 303 627 +73 116
2017/02/02 230 511 +473
2017/02/01 230 038 -677
2017/01/31 230 715 -582
2017/01/30 231 297 -13 441
2017/01/29 244 738 -13 484
2017/01/28 258 222 -483
2017/01/27 258 705 +63 906
2017/01/26 194 799 +638
2017/01/25 194 161 +275
2017/01/24 193 886 -369
2017/01/23 194 255 +12 344
2017/01/22 181 911 +52
2017/01/21 181 859 -40
2017/01/20 181 899 +8 059
2017/01/19 173 840 -11 986
2017/01/18 185 826 +3 671
2017/01/17 182 155 -1 374
2017/01/16 183 529 -1 921
2017/01/15 185 450 +8 447
2017/01/14 177 003 -6 359
2017/01/13 183 362 +16 800
2017/01/12 166 562 -266
2017/01/11 166 828 -5 048
2017/01/10 171 876 -7 117
2017/01/09 178 993 -15 406
2017/01/08 194 399 -9 099
2017/01/07 203 498 +15 135
2017/01/06 188 363 -75
2017/01/05 188 438 +10 977
2017/01/04 177 461 -1 610
2017/01/03 179 071 -17 815
2017/01/02 196 886 -1 915
2017/01/01 198 801 +4 864
2016/12/31 193 937 +214
2016/12/30 193 723 +9 968
2016/12/29 183 755

WIDGET FOR YOUR SITE

DOMAINS WITH THE NEAREST RANK

Domain Rank
twocircles.net 236 593
policija.hr 236 594
2elotoaraba.com 236 595
karmany.net 236 596
squirrelhosting.co.uk 236 597
bug.cn 236 598
psd12.com 236 599
motokase.com 236 600
speed-proxy.net 236 601
ellecanada.com 236 602
centralbank.com 236 603

DOMAINS WITH THE NEAREST RANK BY TLD .cn

Domain Rank
autoimg.cn 236 361
jinri.cn 236 416
smxe.cn 236 460
yundun.cn 236 544
htu.cn 236 582
bug.cn 236 598
bloghost.cn 236 644
englishlive.cn 236 701
pru.cn 237 380
musicianguide.cn 237 577
xiemengyuan.cn 237 962